Time;durP1;ratioP1;P1;durP2;ratioP2;P2;SDS_P1;SDS_P2;PMS_P1;PMS_P2;Temp;Humidity;BMP_temperature;BMP_pressure;BME280_temperature;BME280_humidity;BME280_pressure;Samples;Min_cycle;Max_cycle;Signal;HPM_P1;HPM_P2
2023/02/15 00:01:42;;;;;;;17.73;9.30;;;2.50;99.90;;;;;;4177090;28;20282;-64
2023/02/15 00:03:43;;;;;;;19.70;10.10;;;2.60;99.90;;;;;;4178215;28;20293;-63
2023/02/15 00:05:44;;;;;;;18.30;10.00;;;2.50;99.90;;;;;;4177277;28;20270;-61
2023/02/15 00:07:45;;;;;;;17.70;9.60;;;2.50;99.90;;;;;;4180975;28;20262;-61
2023/02/15 00:09:47;;;;;;;19.40;9.47;;;2.50;99.90;;;;;;4193651;28;20721;-62
2023/02/15 00:11:51;;;;;;;17.60;9.87;;;2.50;99.90;;;;;;4194052;28;20753;-62
2023/02/15 00:13:52;;;;;;;20.17;9.20;;;2.50;99.90;;;;;;4188249;28;20327;-62
2023/02/15 00:15:53;;;;;;;17.63;9.03;;;2.50;99.90;;;;;;4186230;28;20843;-61
2023/02/15 00:17:54;;;;;;;17.80;9.40;;;2.50;99.90;;;;;;4193855;28;20307;-62
2023/02/15 00:19:55;;;;;;;18.63;9.23;;;2.50;99.90;;;;;;4193966;28;20633;-62
2023/02/15 00:21:57;;;;;;;18.43;8.97;;;2.50;99.90;;;;;;4181769;28;20803;-61
2023/02/15 00:23:59;;;;;;;19.63;10.23;;;2.50;99.90;;;;;;4187893;28;20302;-62
2023/02/15 00:26:04;;;;;;;19.47;10.60;;;2.50;99.90;;;;;;4187618;28;20315;-61
2023/02/15 00:28:06;;;;;;;19.20;10.07;;;2.40;99.90;;;;;;4189946;28;20263;-62
2023/02/15 00:30:07;;;;;;;18.90;9.20;;;2.40;99.90;;;;;;4178554;28;20266;-69
2023/02/15 00:32:08;;;;;;;20.77;9.87;;;2.40;99.90;;;;;;4191872;28;20335;-62
2023/02/15 00:34:18;;;;;;;20.93;10.13;;;2.40;99.90;;;;;;4194535;28;20277;-61
2023/02/15 00:36:19;;;;;;;17.40;8.85;;;2.30;99.90;;;;;;4194015;28;20335;-61
2023/02/15 00:38:21;;;;;;;17.50;9.83;;;2.30;99.90;;;;;;4193737;28;20098;-62
2023/02/15 00:40:22;;;;;;;18.57;9.70;;;2.30;99.90;;;;;;4176760;28;20262;-62
2023/02/15 00:42:23;;;;;;;16.67;9.27;;;2.30;99.90;;;;;;4177996;28;20266;-64
2023/02/15 00:44:24;;;;;;;19.80;10.20;;;2.30;99.90;;;;;;4185385;28;20289;-62
2023/02/15 00:46:26;;;;;;;17.80;9.20;;;2.20;99.90;;;;;;4180971;28;20352;-62
2023/02/15 00:48:27;;;;;;;18.13;9.30;;;2.20;99.90;;;;;;4180272;28;20680;-60
2023/02/15 00:50:28;;;;;;;19.90;10.33;;;2.20;99.90;;;;;;4192442;28;20323;-63
2023/02/15 00:52:29;;;;;;;19.80;9.83;;;2.20;99.90;;;;;;4190549;28;20694;-61
2023/02/15 00:54:30;;;;;;;21.30;9.33;;;2.20;99.90;;;;;;4178053;28;20335;-61
2023/02/15 00:56:31;;;;;;;20.50;10.17;;;2.20;99.90;;;;;;4177346;28;20312;-62
2023/02/15 00:58:32;;;;;;;19.10;9.87;;;2.10;99.90;;;;;;4186995;28;20279;-61
2023/02/15 01:00:34;;;;;;;18.00;10.10;;;2.10;99.90;;;;;;4187018;28;20789;-62
2023/02/15 01:02:35;;;;;;;21.00;9.93;;;2.10;99.90;;;;;;4189003;28;20274;-61
2023/02/15 01:04:36;;;;;;;20.00;9.87;;;2.10;99.90;;;;;;4195204;28;20789;-61
2023/02/15 01:06:37;;;;;;;22.60;10.30;;;2.00;99.90;;;;;;4196719;28;20258;-62
2023/02/15 01:08:39;;;;;;;20.03;9.73;;;2.00;99.90;;;;;;4197100;28;20273;-62
2023/02/15 01:10:40;;;;;;;17.93;10.13;;;2.00;99.90;;;;;;4195595;28;20815;-62
2023/02/15 01:12:42;;;;;;;21.40;10.27;;;1.90;99.90;;;;;;4197375;28;20668;-62
2023/02/15 01:14:43;;;;;;;17.83;9.67;;;1.90;99.90;;;;;;4183982;28;20741;-61
2023/02/15 01:16:44;;;;;;;20.67;10.57;;;1.90;99.90;;;;;;4196133;28;20265;-62
2023/02/15 01:18:45;;;;;;;17.10;9.90;;;2.00;99.90;;;;;;4196138;28;20269;-61
2023/02/15 01:20:47;;;;;;;17.50;9.87;;;1.90;99.90;;;;;;4196965;28;20269;-62
2023/02/15 01:22:49;;;;;;;15.73;8.87;;;1.90;99.90;;;;;;4193376;28;20342;-63
2023/02/15 01:24:50;;;;;;;20.27;10.10;;;1.90;99.90;;;;;;4181100;28;20427;-62
2023/02/15 01:26:52;;;;;;;19.47;10.23;;;1.90;99.90;;;;;;4182552;28;20262;-61
2023/02/15 01:28:53;;;;;;;17.73;9.33;;;1.80;99.90;;;;;;4180630;28;20348;-62
2023/02/15 01:30:54;;;;;;;20.87;10.10;;;1.80;99.90;;;;;;4188306;28;20273;-64
2023/02/15 01:32:55;;;;;;;21.33;10.53;;;1.80;99.90;;;;;;4190967;28;20278;-62
2023/02/15 01:34:57;;;;;;;26.93;11.97;;;1.80;99.90;;;;;;4185572;28;20764;-61
2023/02/15 01:36:58;;;;;;;24.67;12.37;;;1.80;99.90;;;;;;4194160;28;20311;-60
2023/02/15 01:39:01;;;;;;;25.63;13.17;;;1.80;99.90;;;;;;4196601;28;20319;-58
2023/02/15 01:41:22;;;;;;;24.03;11.73;;;1.70;99.90;;;;;;4195644;28;20288;-61
2023/02/15 01:43:43;;;;;;;23.03;11.63;;;1.70;99.90;;;;;;4195126;28;20342;-62
2023/02/15 01:45:47;;;;;;;25.27;11.68;;;1.60;99.90;;;;;;4186192;28;20303;-62
2023/02/15 01:48:02;;;;;;;29.47;13.57;;;1.70;99.90;;;;;;4196881;28;20146;-63
2023/02/15 01:50:13;;;;;;;23.53;12.13;;;1.60;99.90;;;;;;4182181;28;20254;-62
2023/02/15 01:52:18;;;;;;;24.10;11.47;;;1.60;99.90;;;;;;4180007;28;20290;-61
2023/02/15 01:54:27;;;;;;;27.77;12.73;;;1.50;99.90;;;;;;4179927;28;20270;-59
2023/02/15 01:56:33;;;;;;;25.13;12.13;;;1.50;99.90;;;;;;4180020;28;20266;-61
2023/02/15 01:58:36;;;;;;;26.70;12.30;;;1.50;99.90;;;;;;4178772;28;20262;-62
2023/02/15 02:00:37;;;;;;;25.73;12.77;;;1.40;99.90;;;;;;4195674;28;20282;-61
2023/02/15 02:02:42;;;;;;;27.40;13.23;;;1.40;99.90;;;;;;4162287;28;20275;-62
2023/02/15 02:04:51;;;;;;;23.37;11.87;;;1.40;99.90;;;;;;4196154;28;20281;-63
2023/02/15 02:06:54;;;;;;;25.00;11.43;;;1.40;99.90;;;;;;4195797;28;20285;-63
2023/02/15 02:08:56;;;;;;;25.67;11.80;;;1.40;99.90;;;;;;4192495;28;20733;-63
2023/02/15 02:10:57;;;;;;;23.63;12.37;;;1.50;99.90;;;;;;4178627;28;20258;-72
2023/02/15 02:13:02;;;;;;;25.30;11.93;;;1.40;99.90;;;;;;4180827;28;20296;-60
2023/02/15 02:15:05;;;;;;;23.50;11.63;;;1.40;99.90;;;;;;4187771;28;20278;-61
2023/02/15 02:17:51;;;;;;;26.43;12.00;;;1.40;99.90;;;;;;4181728;28;20745;-61
2023/02/15 02:20:26;;;;;;;22.23;11.07;;;1.40;99.90;;;;;;4141336;28;20262;-63
2023/02/15 02:22:45;;;;;;;29.10;12.23;;;1.40;99.90;;;;;;4190752;28;20350;-61
2023/02/15 02:24:55;;;;;;;19.53;11.33;;;1.30;99.90;;;;;;4179457;28;20293;-66
2023/02/15 02:27:20;;;;;;;24.95;11.98;;;1.30;99.90;;;;;;4179639;28;20677;-62
2023/02/15 02:29:56;;;;;;;27.50;12.27;;;1.30;99.90;;;;;;4186207;28;20028;-61
2023/02/15 02:32:27;;;;;;;29.60;12.97;;;1.30;99.90;;;;;;4183673;28;20278;-61
2023/02/15 02:35:06;;;;;;;26.63;13.77;;;1.20;99.90;;;;;;4194582;28;20326;-61
2023/02/15 02:37:24;;;;;;;23.93;11.83;;;1.20;99.90;;;;;;4188591;28;20274;-60
2023/02/15 02:39:47;;;;;;;24.33;11.90;;;1.20;99.90;;;;;;4179241;28;20263;-60
2023/02/15 02:42:12;;;;;;;25.33;10.80;;;1.10;99.90;;;;;;4193660;28;20269;-58
2023/02/15 02:44:28;;;;;;;23.33;11.27;;;1.10;99.90;;;;;;4192136;28;20846;-60
2023/02/15 02:46:58;;;;;;;30.70;12.70;;;1.00;99.90;;;;;;4188140;28;20315;-60
2023/02/15 02:49:01;;;;;;;25.85;12.15;;;1.10;99.90;;;;;;4195109;28;20614;-60
2023/02/15 02:51:02;;;;;;;27.23;12.90;;;1.00;99.90;;;;;;4179767;28;20440;-59
2023/02/15 02:53:03;;;;;;;23.57;11.83;;;1.00;99.90;;;;;;4186741;28;20312;-61
2023/02/15 02:55:29;;;;;;;22.40;12.10;;;1.00;99.90;;;;;;4192738;28;20277;-60
2023/02/15 02:57:32;;;;;;;21.50;11.37;;;0.90;99.90;;;;;;4193986;28;20777;-59
2023/02/15 02:59:40;;;;;;;23.73;11.73;;;1.00;99.90;;;;;;4183536;28;20344;-61
2023/02/15 03:01:59;;;;;;;24.63;11.73;;;0.90;99.90;;;;;;4189350;28;20615;-61
2023/02/15 03:04:09;;;;;;;29.60;11.97;;;1.00;99.90;;;;;;4187916;28;20777;-61
2023/02/15 03:06:23;;;;;;;26.40;12.55;;;1.00;99.90;;;;;;4178584;28;20266;-61
2023/02/15 03:08:28;;;;;;;22.87;11.53;;;0.90;99.90;;;;;;4187264;28;20374;-61
2023/02/15 03:10:29;;;;;;;23.37;11.47;;;0.90;99.90;;;;;;4194637;28;20626;-61
2023/02/15 03:12:35;;;;;;;23.10;12.13;;;0.90;99.90;;;;;;4192406;28;20367;-61
2023/02/15 03:14:38;;;;;;;26.67;12.37;;;0.90;99.90;;;;;;4193742;28;20269;-60
2023/02/15 03:16:41;;;;;;;26.17;12.60;;;0.90;99.90;;;;;;4188526;28;20269;-66
2023/02/15 03:18:52;;;;;;;24.17;12.70;;;0.90;99.90;;;;;;4178760;28;21144;-60
2023/02/15 03:20:56;;;;;;;27.67;11.97;;;0.90;99.90;;;;;;4176883;28;20332;-61
2023/02/15 03:23:02;;;;;;;20.50;10.77;;;0.90;99.90;;;;;;4179614;28;20738;-56
2023/02/15 03:25:13;;;;;;;22.67;12.40;;;0.90;99.90;;;;;;4191367;28;20614;-60
2023/02/15 03:27:25;;;;;;;23.30;11.50;;;0.90;99.90;;;;;;4178318;28;20816;-61
2023/02/15 03:29:29;;;;;;;28.13;12.60;;;0.90;99.90;;;;;;4178460;28;20098;-61
2023/02/15 03:31:36;;;;;;;26.17;13.30;;;0.80;99.90;;;;;;4192521;28;20269;-61
2023/02/15 03:33:47;;;;;;;28.90;13.40;;;0.80;99.90;;;;;;4182426;28;20308;-61
2023/02/15 03:35:56;;;;;;;22.13;11.67;;;0.80;99.90;;;;;;4177821;28;20333;-60
2023/02/15 03:38:01;;;;;;;23.83;11.47;;;0.80;99.90;;;;;;4177178;28;20278;-60
2023/02/15 03:42:35;;;;;;;26.47;11.90;;;0.70;99.90;;;;;;4192033;28;20719;-60
2023/02/15 03:45:02;;;;;;;22.57;12.30;;;0.70;99.90;;;;;;4184352;28;20294;-64
2023/02/15 03:47:13;;;;;;;25.10;12.00;;;0.70;99.90;;;;;;4184793;28;20753;-61
2023/02/15 03:49:22;;;;;;;;;;;0.70;99.90;;;;;;4180680;28;20608;-61
2023/02/15 03:51:34;;;;;;;24.87;11.97;;;0.70;99.90;;;;;;4177251;28;20262;-60
2023/02/15 03:53:35;;;;;;;29.63;12.03;;;0.70;99.90;;;;;;4179141;28;20312;-60
2023/02/15 03:55:36;;;;;;;24.03;12.47;;;0.70;99.90;;;;;;4183199;28;20347;-61
2023/02/15 04:02:23;;;;;;;;;;;0.80;99.90;;;;;;4183228;28;20315;-60
2023/02/15 04:04:30;;;;;;;27.27;13.07;;;0.90;99.90;;;;;;4192810;28;19912;-61
2023/02/15 04:06:31;;;;;;;23.27;12.27;;;0.90;99.90;;;;;;4194005;28;20811;-61
2023/02/15 04:10:53;;;;;;;23.93;11.63;;;0.90;99.90;;;;;;4177884;28;20335;-60
2023/02/15 04:12:54;;;;;;;24.17;12.00;;;0.90;99.90;;;;;;4176957;28;20738;-60
2023/02/15 04:17:15;;;;;;;26.50;12.60;;;1.00;99.90;;;;;;4187518;28;20327;-61
2023/02/15 04:26:15;;;;;;;27.07;12.20;;;1.00;99.90;;;;;;4191367;28;20330;-61
2023/02/15 04:28:16;;;;;;;22.40;12.10;;;1.00;99.90;;;;;;4182716;28;20336;-61
2023/02/15 04:30:20;;;;;;;22.97;12.60;;;1.00;99.90;;;;;;4183884;28;20347;-60
2023/02/15 04:32:21;;;;;;;26.80;12.50;;;1.00;99.90;;;;;;4194722;28;20331;-61
2023/02/15 04:34:22;;;;;;;29.37;14.97;;;1.00;99.90;;;;;;4180767;28;20282;-61
2023/02/15 04:36:23;;;;;;;29.73;15.53;;;1.00;99.90;;;;;;4182361;28;20732;-63
2023/02/15 04:38:24;;;;;;;25.87;12.57;;;1.00;99.90;;;;;;4188691;28;20370;-58
2023/02/15 04:40:25;;;;;;;24.27;13.37;;;1.00;99.90;;;;;;4186282;28;21728;-60
2023/02/15 04:42:27;;;;;;;25.07;12.43;;;1.00;99.90;;;;;;4189851;28;20319;-60
2023/02/15 04:44:28;;;;;;;23.73;11.43;;;1.00;99.90;;;;;;4196918;28;20337;-60
2023/02/15 04:46:30;;;;;;;26.70;13.70;;;1.00;99.90;;;;;;4188314;28;20769;-61
2023/02/15 04:48:31;;;;;;;24.17;13.27;;;1.00;99.90;;;;;;4187458;28;20288;-63
2023/02/15 04:50:32;;;;;;;23.77;12.57;;;1.00;99.90;;;;;;4188806;28;20261;-60
2023/02/15 04:52:33;;;;;;;25.03;13.00;;;1.00;99.90;;;;;;4197070;28;20265;-61
2023/02/15 04:54:34;;;;;;;28.73;12.97;;;1.10;99.90;;;;;;4196316;28;20261;-61
2023/02/15 04:56:37;;;;;;;27.13;13.30;;;1.10;99.90;;;;;;4194202;28;20271;-61
2023/02/15 04:58:40;;;;;;;29.77;13.63;;;1.10;99.90;;;;;;4180431;28;20274;-62
2023/02/15 05:00:42;;;;;;;26.40;13.43;;;1.10;99.90;;;;;;4188361;28;20273;-61
2023/02/15 05:02:43;;;;;;;22.23;11.80;;;1.20;99.90;;;;;;4197149;28;20311;-61
2023/02/15 05:04:44;;;;;;;24.83;11.77;;;1.10;99.90;;;;;;4185112;28;20344;-61
2023/02/15 05:06:45;;;;;;;27.10;13.43;;;1.20;99.90;;;;;;4186631;28;20328;-61
2023/02/15 05:08:46;;;;;;;22.87;12.63;;;1.20;99.90;;;;;;4179591;28;20258;-61
2023/02/15 05:10:48;;;;;;;24.13;12.63;;;1.20;99.90;;;;;;4180557;28;20281;-62
2023/02/15 05:12:49;;;;;;;31.77;19.50;;;1.20;99.90;;;;;;4178777;28;20804;-60
2023/02/15 05:14:50;;;;;;;31.33;14.33;;;1.20;99.90;;;;;;4180392;28;20274;-61
2023/02/15 05:16:53;;;;;;;26.13;13.37;;;1.10;99.90;;;;;;4180420;28;20269;-61
2023/02/15 05:18:54;;;;;;;24.93;13.37;;;1.10;99.90;;;;;;4183705;28;20278;-61
2023/02/15 05:20:55;;;;;;;23.20;12.73;;;1.10;99.90;;;;;;4181324;28;20273;-63
2023/02/15 05:22:57;;;;;;;27.63;12.97;;;1.20;99.90;;;;;;4179836;28;20308;-61
2023/02/15 05:29:37;;;;;;;28.33;14.80;;;1.20;99.90;;;;;;4179144;28;20312;-61
2023/02/15 05:31:38;;;;;;;29.47;14.27;;;1.20;99.90;;;;;;4182807;28;20366;-67
2023/02/15 05:33:40;;;;;;;24.30;12.20;;;1.20;99.90;;;;;;4189303;28;20274;-61
2023/02/15 05:35:41;;;;;;;26.33;13.30;;;1.20;99.90;;;;;;4182070;28;20885;-60
2023/02/15 05:37:42;;;;;;;23.77;11.73;;;1.20;99.90;;;;;;4196595;28;20249;-62
2023/02/15 05:39:44;;;;;;;22.47;11.53;;;1.20;99.90;;;;;;4195635;28;20771;-62
2023/02/15 05:41:45;;;;;;;26.23;12.17;;;1.20;99.90;;;;;;4196501;28;20270;-63
2023/02/15 05:43:46;;;;;;;24.97;12.50;;;1.30;99.90;;;;;;4184376;28;20359;-62
2023/02/15 05:45:49;;;;;;;25.33;12.20;;;1.40;99.90;;;;;;4177972;28;20324;-64
2023/02/15 05:47:50;;;;;;;26.93;13.00;;;1.50;99.90;;;;;;4178572;28;20336;-63
2023/02/15 05:49:51;;;;;;;27.57;12.30;;;1.60;99.90;;;;;;4182584;28;20344;-61
2023/02/15 05:51:52;;;;;;;22.57;11.90;;;1.70;99.90;;;;;;4189841;28;20687;-61
2023/02/15 05:53:53;;;;;;;22.07;12.00;;;1.90;99.90;;;;;;4196169;28;20289;-60
2023/02/15 05:55:58;;;;;;;23.33;11.77;;;2.00;99.90;;;;;;4187784;28;20855;-62
2023/02/15 05:57:59;;;;;;;24.57;12.40;;;2.20;99.90;;;;;;4185110;28;20266;-61
2023/02/15 06:00:04;;;;;;;21.13;12.17;;;2.30;99.90;;;;;;4175897;28;20351;-60
2023/02/15 06:02:06;;;;;;;22.90;12.20;;;2.30;99.90;;;;;;4182631;28;20277;-60
2023/02/15 06:04:07;;;;;;;29.67;13.90;;;2.30;99.90;;;;;;4184375;28;20635;-61
2023/02/15 06:06:09;;;;;;;30.43;16.27;;;2.20;99.90;;;;;;4186115;28;20273;-62
2023/02/15 06:08:10;;;;;;;30.57;16.23;;;2.00;99.90;;;;;;4195902;28;20753;-61
2023/02/15 06:10:11;;;;;;;30.17;16.83;;;1.80;99.90;;;;;;4192041;28;20277;-62
2023/02/15 06:12:12;;;;;;;34.13;17.60;;;1.50;99.90;;;;;;4188836;28;20721;-61
2023/02/15 06:14:14;;;;;;;32.50;16.93;;;1.30;99.90;;;;;;4177956;28;20254;-62
2023/02/15 06:16:15;;;;;;;38.97;18.67;;;1.20;99.90;;;;;;4183366;28;20343;-60
2023/02/15 06:18:16;;;;;;;42.30;20.60;;;1.10;99.90;;;;;;4194769;28;20265;-61
2023/02/15 06:20:18;;;;;;;48.03;20.50;;;1.10;99.90;;;;;;4195848;28;20315;-64
2023/02/15 06:22:20;;;;;;;32.90;17.03;;;1.00;99.90;;;;;;4194143;28;20266;-61
2023/02/15 06:24:21;;;;;;;34.80;17.40;;;1.10;99.90;;;;;;4183281;28;20327;-60
2023/02/15 06:26:22;;;;;;;41.93;18.70;;;1.20;99.90;;;;;;4178134;28;20289;-61
2023/02/15 06:28:25;;;;;;;38.77;19.50;;;1.30;99.90;;;;;;4179278;28;20266;-61
2023/02/15 06:30:26;;;;;;;49.57;21.40;;;1.60;99.90;;;;;;4177747;28;20274;-61
2023/02/15 06:32:27;;;;;;;45.37;22.17;;;1.80;99.90;;;;;;4178965;28;20320;-62
2023/02/15 06:34:28;;;;;;;52.03;24.60;;;2.00;99.90;;;;;;4177994;28;20343;-61
2023/02/15 06:36:30;;;;;;;52.30;25.90;;;2.20;99.90;;;;;;4178603;28;20311;-60
2023/02/15 06:38:31;;;;;;;50.47;24.90;;;2.40;99.90;;;;;;4178699;28;20254;-61
2023/02/15 06:40:33;;;;;;;50.33;25.33;;;2.70;99.90;;;;;;4178478;28;20266;-61
2023/02/15 06:42:34;;;;;;;47.27;24.27;;;3.10;99.90;;;;;;4178664;28;20351;-61
2023/02/15 06:44:35;;;;;;;52.67;23.23;;;3.70;99.90;;;;;;4177793;28;20352;-61
2023/02/15 06:46:36;;;;;;;44.83;23.80;;;4.20;99.90;;;;;;4178859;28;20757;-61
2023/02/15 06:48:37;;;;;;;43.00;22.53;;;4.70;99.90;;;;;;4177912;28;20721;-61
2023/02/15 06:50:39;;;;;;;43.20;22.47;;;5.30;99.90;;;;;;4179067;28;20037;-61
2023/02/15 06:52:40;;;;;;;45.40;21.73;;;5.70;99.90;;;;;;4177708;28;20074;-63
2023/02/15 06:54:41;;;;;;;44.37;21.83;;;6.00;99.90;;;;;;4178902;28;20083;-61
2023/02/15 06:56:43;;;;;;;34.97;19.03;;;6.20;99.90;;;;;;4176403;28;20037;-66
2023/02/15 06:58:49;;;;;;;33.10;19.13;;;6.00;99.90;;;;;;4178549;28;20033;-61
2023/02/15 07:00:52;;;;;;;34.07;17.87;;;5.20;99.90;;;;;;4176697;28;20041;-63
2023/02/15 07:02:57;;;;;;;33.53;18.77;;;4.00;99.90;;;;;;4178582;28;20091;-62
2023/02/15 07:04:59;;;;;;;27.93;16.67;;;3.30;99.90;;;;;;4177352;28;20090;-63
2023/02/15 07:07:00;;;;;;;29.70;14.73;;;2.70;99.90;;;;;;4178769;28;20029;-61
2023/02/15 07:09:01;;;;;;;28.90;16.07;;;2.30;99.90;;;;;;4177484;28;20028;-62
2023/02/15 07:13:22;;;;;;;30.40;15.77;;;2.00;99.90;;;;;;4177511;28;20099;-60
2023/02/15 07:15:24;;;;;;;30.47;16.67;;;1.90;99.90;;;;;;4178119;28;20278;-59
2023/02/15 07:17:28;;;;;;;35.30;18.20;;;1.80;99.90;;;;;;4177747;28;20270;-61
2023/02/15 07:19:29;;;;;;;33.23;17.03;;;1.90;99.90;;;;;;4177933;28;20335;-60
2023/02/15 07:21:30;;;;;;;36.83;18.53;;;1.90;99.90;;;;;;4177825;28;20278;-62
2023/02/15 07:23:31;;;;;;;30.20;15.53;;;1.90;99.90;;;;;;4177610;28;20758;-60
2023/02/15 07:25:32;;;;;;;31.60;16.33;;;2.00;99.90;;;;;;4178054;28;20306;-61
2023/02/15 07:27:34;;;;;;;36.53;17.60;;;2.10;99.90;;;;;;4177041;28;20266;-60
2023/02/15 07:29:35;;;;;;;30.07;15.70;;;2.30;99.90;;;;;;4178373;28;20266;-60
2023/02/15 07:31:36;;;;;;;34.40;16.80;;;2.50;99.90;;;;;;4176891;28;20274;-61
2023/02/15 07:33:37;;;;;;;35.37;17.63;;;2.70;99.90;;;;;;4178355;28;20278;-62
2023/02/15 07:35:45;;;;;;;30.90;17.27;;;3.00;99.90;;;;;;4177055;28;20324;-61
2023/02/15 07:37:46;;;;;;;32.23;17.70;;;3.40;99.90;;;;;;4178599;28;20316;-61
2023/02/15 07:39:47;;;;;;;44.40;17.50;;;3.70;99.90;;;;;;4176969;28;20308;-61
2023/02/15 07:41:49;;;;;;;31.87;16.30;;;4.10;99.90;;;;;;4178190;28;20274;-64
2023/02/15 07:43:50;;;;;;;34.90;16.80;;;4.20;99.90;;;;;;4176981;28;20674;-62
2023/02/15 07:45:51;;;;;;;35.40;17.50;;;4.50;99.90;;;;;;4159812;28;20287;-62
2023/02/15 07:47:52;;;;;;;31.13;15.47;;;5.00;99.90;;;;;;4177149;28;20299;-62
2023/02/15 07:49:53;;;;;;;36.00;16.47;;;5.30;99.90;;;;;;4177507;28;20316;-61
2023/02/15 07:51:54;;;;;;;35.70;17.07;;;5.60;99.90;;;;;;4177241;28;20286;-63
2023/02/15 07:53:55;;;;;;;37.23;17.20;;;5.60;99.90;;;;;;4177058;28;20684;-61
2023/02/15 07:56:04;;;;;;;32.07;16.83;;;5.60;99.90;;;;;;4177712;28;20269;-62
2023/02/15 07:58:06;;;;;;;31.57;15.93;;;5.70;99.90;;;;;;4177062;28;20262;-62
2023/02/15 08:00:07;;;;;;;34.40;16.93;;;5.50;99.90;;;;;;4177640;28;20705;-62
2023/02/15 08:02:10;;;;;;;33.80;16.90;;;5.40;99.90;;;;;;4176813;28;20094;-61
2023/02/15 08:04:11;;;;;;;31.57;15.43;;;5.40;99.90;;;;;;4177977;28;20288;-63
2023/02/15 08:06:13;;;;;;;36.47;15.73;;;5.00;99.90;;;;;;4176817;28;20703;-61
2023/02/15 08:08:29;;;;;;;26.50;15.90;;;4.80;99.90;;;;;;4177901;28;20032;-62
2023/02/15 08:12:50;;;;;;;34.00;15.53;;;4.80;99.90;;;;;;4177879;28;20095;-61
2023/02/15 08:14:51;;;;;;;27.70;14.87;;;4.60;99.90;;;;;;4176681;28;20584;-61
2023/02/15 08:16:57;;;;;;;32.70;15.67;;;4.40;99.90;;;;;;4177777;28;20032;-62
2023/02/15 08:19:00;;;;;;;34.20;15.40;;;4.40;99.90;;;;;;4176604;28;20286;-62
2023/02/15 08:21:03;;;;;;;29.37;15.40;;;4.30;99.90;;;;;;4177774;28;20470;-62
2023/02/15 08:23:04;;;;;;;28.93;14.87;;;4.20;99.90;;;;;;4176226;28;20266;-62
2023/02/15 08:25:06;;;;;;;28.53;15.10;;;4.20;99.90;;;;;;4177619;28;20290;-61
2023/02/15 08:27:09;;;;;;;26.53;13.90;;;4.20;99.90;;;;;;4176356;28;20323;-61
2023/02/15 08:29:10;;;;;;;27.93;14.53;;;4.30;99.90;;;;;;4177788;28;20371;-63
2023/02/15 08:31:13;;;;;;;35.77;16.13;;;4.30;99.90;;;;;;4176488;28;20301;-62
2023/02/15 08:33:14;;;;;;;32.20;17.03;;;4.30;99.90;;;;;;4177487;28;20296;-61
2023/02/15 08:35:16;;;;;;;43.30;16.57;;;4.50;99.90;;;;;;4176291;28;20304;-63
2023/02/15 08:37:17;;;;;;;34.60;15.23;;;4.50;99.90;;;;;;4176874;28;20270;-62
2023/02/15 08:39:18;;;;;;;31.33;15.13;;;4.60;99.90;;;;;;4177312;28;20269;-61
2023/02/15 08:41:19;;;;;;;28.73;14.57;;;4.60;99.90;;;;;;4176609;28;20262;-61
2023/02/15 08:43:20;;;;;;;28.07;15.50;;;4.60;99.90;;;;;;4177391;28;20336;-60
2023/02/15 08:45:21;;;;;;;30.57;15.67;;;4.70;99.90;;;;;;4175894;28;20297;-61
2023/02/15 08:47:22;;;;;;;30.30;14.20;;;4.60;99.90;;;;;;4177256;28;20273;-61
2023/02/15 08:49:23;;;;;;;32.07;14.90;;;4.60;99.90;;;;;;4176096;28;20265;-60
2023/02/15 08:51:27;;;;;;;32.90;14.80;;;4.50;99.90;;;;;;4177155;28;20270;-60
2023/02/15 08:53:28;;;;;;;28.47;14.20;;;4.60;99.90;;;;;;4176223;28;20250;-61
2023/02/15 08:55:29;;;;;;;29.60;14.27;;;4.60;99.90;;;;;;4177380;28;20365;-62
2023/02/15 08:57:31;;;;;;;27.50;13.97;;;4.50;99.90;;;;;;4176094;28;20266;-61
2023/02/15 08:59:32;;;;;;;27.93;14.27;;;4.40;99.90;;;;;;4177073;28;20333;-61
2023/02/15 09:01:34;;;;;;;31.73;14.13;;;4.40;99.90;;;;;;4176109;28;20775;-61
2023/02/15 09:03:36;;;;;;;31.37;13.63;;;4.50;99.90;;;;;;4176834;28;20316;-61
2023/02/15 09:05:37;;;;;;;31.87;14.67;;;4.50;99.90;;;;;;4176526;28;20285;-60
2023/02/15 09:07:38;;;;;;;30.57;15.50;;;4.40;99.90;;;;;;4177012;28;20820;-61
2023/02/15 09:09:39;;;;;;;29.50;14.77;;;4.50;99.90;;;;;;4176735;28;20592;-60
2023/02/15 09:11:42;;;;;;;29.73;15.30;;;4.60;99.90;;;;;;4176159;28;20282;-60
2023/02/15 09:13:44;;;;;;;33.90;15.07;;;4.50;99.90;;;;;;4176453;28;20304;-60
2023/02/15 09:15:46;;;;;;;27.70;15.33;;;4.50;99.90;;;;;;4175859;28;20734;-60
2023/02/15 09:17:47;;;;;;;26.67;14.93;;;4.60;99.90;;;;;;4176940;28;20262;-62
2023/02/15 09:19:48;;;;;;;32.53;15.80;;;4.60;99.90;;;;;;4177115;28;20274;-60
2023/02/15 09:21:50;;;;;;;29.30;13.70;;;4.50;99.90;;;;;;4180037;28;20741;-60
2023/02/15 09:23:56;;;;;;;32.60;15.77;;;4.40;99.90;;;;;;4179011;28;20278;-61
2023/02/15 09:26:01;;;;;;;31.17;15.20;;;4.40;99.90;;;;;;4179784;28;20283;-60
2023/02/15 09:28:02;;;;;;;30.03;14.90;;;4.50;99.90;;;;;;4178923;28;20600;-60
2023/02/15 09:30:04;;;;;;;29.63;15.27;;;4.50;99.90;;;;;;4179817;28;20290;-59
2023/02/15 09:32:05;;;;;;;28.60;14.83;;;4.40;99.90;;;;;;4179033;28;20261;-61
2023/02/15 09:34:06;;;;;;;28.27;13.50;;;4.40;99.90;;;;;;4179897;28;20296;-61
2023/02/15 09:36:17;;;;;;;36.77;13.77;;;4.30;99.90;;;;;;4178911;28;20324;-61
2023/02/15 09:38:18;;;;;;;;;;;4.30;99.90;;;;;;4180827;28;20663;-61
2023/02/15 09:40:19;;;;;;;;;;;4.10;99.90;;;;;;4179317;28;19909;-61
2023/02/15 09:42:26;;;;;;;;;;;4.10;99.90;;;;;;4179945;28;20253;-61
2023/02/15 09:44:30;;;;;;;29.70;14.43;;;4.10;99.90;;;;;;4179066;28;19913;-61
2023/02/15 09:46:52;;;;;;;27.90;14.63;;;4.10;99.90;;;;;;4179099;28;20294;-61
2023/02/15 09:49:02;;;;;;;30.63;15.33;;;4.20;99.90;;;;;;4179068;28;20335;-61
2023/02/15 09:51:38;;;;;;;35.72;15.48;;;4.30;99.90;;;;;;4179047;28;20254;-61
2023/02/15 09:53:54;;;;;;;30.83;15.13;;;4.40;99.90;;;;;;4178582;28;20033;-62
2023/02/15 09:56:37;;;;;;;27.97;14.43;;;4.40;99.90;;;;;;4179808;28;20271;-61
2023/02/15 09:58:50;;;;;;;34.67;15.87;;;4.40;99.90;;;;;;4178589;28;20270;-60
2023/02/15 10:01:03;;;;;;;27.17;14.43;;;4.40;99.90;;;;;;4179138;28;20405;-61
2023/02/15 10:03:14;;;;;;;26.57;14.33;;;4.40;99.90;;;;;;4176750;28;20270;-63
2023/02/15 10:05:27;;;;;;;29.00;15.38;;;4.40;99.90;;;;;;4179560;28;20632;-61
2023/02/15 10:08:09;;;;;;;26.67;13.77;;;4.50;99.90;;;;;;4178330;28;20432;-61
2023/02/15 10:10:23;;;;;;;30.13;15.10;;;4.50;99.90;;;;;;4178915;28;20666;-67
2023/02/15 10:12:42;;;;;;;27.40;15.00;;;4.60;99.90;;;;;;4178543;28;20335;-62
2023/02/15 10:15:00;;;;;;;27.60;14.23;;;4.50;99.90;;;;;;4178703;28;20254;-60
2023/02/15 10:17:29;;;;;;;28.53;15.00;;;4.50;99.90;;;;;;4179074;28;20379;-61
2023/02/15 10:20:07;;;;;;;30.77;13.40;;;4.50;99.90;;;;;;4178044;28;20289;-60
2023/02/15 10:22:45;;;;;;;31.20;13.97;;;4.50;99.90;;;;;;4179302;28;20270;-61
2023/02/15 10:25:11;;;;;;;28.70;14.77;;;4.50;99.90;;;;;;4177945;28;20270;-63
2023/02/15 10:27:20;;;;;;;27.63;14.80;;;4.50;99.90;;;;;;4178961;28;20282;-66
2023/02/15 10:29:28;;;;;;;33.50;14.37;;;4.60;99.90;;;;;;4178270;28;20262;-60
2023/02/15 10:31:32;;;;;;;29.97;14.90;;;4.60;99.90;;;;;;4178321;28;20266;-61
2023/02/15 10:33:43;;;;;;;27.27;14.70;;;4.70;99.90;;;;;;4177848;28;20270;-60
2023/02/15 10:36:08;;;;;;;27.97;15.23;;;4.70;99.90;;;;;;4178403;28;20332;-57
2023/02/15 10:38:40;;;;;;;34.70;14.83;;;4.70;99.90;;;;;;4178356;28;20270;-61
2023/02/15 10:41:01;;;;;;;33.60;15.33;;;4.80;99.90;;;;;;4178092;28;20388;-60
2023/02/15 10:43:09;;;;;;;;;;;4.80;99.90;;;;;;4179132;28;20052;-61
2023/02/15 10:45:39;;;;;;;28.40;14.27;;;4.70;99.90;;;;;;4177817;28;19909;-61
2023/02/15 10:47:58;;;;;;;29.50;14.15;;;4.80;99.90;;;;;;4178565;28;20791;-60
2023/02/15 10:50:35;;;;;;;29.43;14.50;;;4.90;99.90;;;;;;4177447;28;20374;-60
2023/02/15 10:52:58;;;;;;;31.90;15.90;;;5.10;99.90;;;;;;4178646;28;20324;-60
2023/02/15 10:55:21;;;;;;;29.97;14.97;;;5.20;99.90;;;;;;4177604;28;20265;-61
2023/02/15 10:58:03;;;;;;;30.80;14.10;;;5.10;99.90;;;;;;4178696;28;20415;-61
2023/02/15 11:00:07;;;;;;;26.93;14.17;;;5.20;99.90;;;;;;4177019;28;20328;-61
2023/02/15 11:02:36;;;;;;;29.57;15.50;;;5.20;99.90;;;;;;4178155;28;20542;-63
2023/02/15 11:05:08;;;;;;;26.03;14.07;;;5.10;99.90;;;;;;4178260;28;20021;-62
2023/02/15 11:07:24;;;;;;;34.20;15.57;;;5.20;99.90;;;;;;4177393;28;20348;-61
2023/02/15 11:09:36;;;;;;;30.17;15.53;;;5.30;99.90;;;;;;4178931;28;20094;-67
2023/02/15 11:11:41;;;;;;;30.10;14.87;;;5.30;99.90;;;;;;4177281;28;20256;-61
2023/02/15 11:13:49;;;;;;;29.10;14.40;;;5.30;99.90;;;;;;4178027;28;20266;-61
2023/02/15 11:15:59;;;;;;;26.57;15.10;;;5.30;99.90;;;;;;4176968;28;20431;-61
2023/02/15 11:18:19;;;;;;;32.58;15.23;;;5.30;99.90;;;;;;4177838;28;20037;-61
2023/02/15 11:20:29;;;;;;;28.20;14.30;;;5.30;99.90;;;;;;4177120;28;20048;-60